sensor_id;sensor_type;location;lat;lon;timestamp;pressure;altitude;pressure_sealevel;temperature;humidity
57232;BME280;43488;46.934;8.276;2023-01-29T00:00:41;97202.03;;;0.39;76.97
57232;BME280;43488;46.934;8.276;2023-01-29T00:03:09;97202.16;;;0.38;78.05
57232;BME280;43488;46.934;8.276;2023-01-29T00:05:37;97196.25;;;0.36;77.43
57232;BME280;43488;46.934;8.276;2023-01-29T00:08:04;97197.19;;;0.35;78.28
57232;BME280;43488;46.934;8.276;2023-01-29T00:10:32;97199.03;;;0.23;78.34
57232;BME280;43488;46.934;8.276;2023-01-29T00:13:00;97202.44;;;0.23;79.00
57232;BME280;43488;46.934;8.276;2023-01-29T00:15:28;97195.81;;;0.31;78.90
57232;BME280;43488;46.934;8.276;2023-01-29T00:17:56;97194.06;;;0.31;79.62
57232;BME280;43488;46.934;8.276;2023-01-29T00:20:24;97196.31;;;0.24;80.22
57232;BME280;43488;46.934;8.276;2023-01-29T00:22:52;97198.91;;;0.24;80.12
57232;BME280;43488;46.934;8.276;2023-01-29T00:25:19;97202.03;;;0.18;80.78
57232;BME280;43488;46.934;8.276;2023-01-29T00:27:50;97198.72;;;0.16;81.30
57232;BME280;43488;46.934;8.276;2023-01-29T00:30:18;97197.97;;;0.25;80.94
57232;BME280;43488;46.934;8.276;2023-01-29T00:32:45;97195.81;;;0.31;80.91
57232;BME280;43488;46.934;8.276;2023-01-29T00:35:12;97195.25;;;0.27;80.83
57232;BME280;43488;46.934;8.276;2023-01-29T00:37:39;97200.88;;;0.32;80.27
57232;BME280;43488;46.934;8.276;2023-01-29T00:40:07;97192.16;;;0.33;80.37
57232;BME280;43488;46.934;8.276;2023-01-29T00:42:35;97199.66;;;0.36;80.16
57232;BME280;43488;46.934;8.276;2023-01-29T00:45:21;97199.94;;;0.33;79.60
57232;BME280;43488;46.934;8.276;2023-01-29T00:47:49;97205.72;;;0.25;79.52
57232;BME280;43488;46.934;8.276;2023-01-29T00:50:16;97209.28;;;0.24;79.83
57232;BME280;43488;46.934;8.276;2023-01-29T00:52:43;97206.31;;;0.29;79.73
57232;BME280;43488;46.934;8.276;2023-01-29T00:55:10;97196.91;;;0.28;79.80
57232;BME280;43488;46.934;8.276;2023-01-29T00:57:38;97190.38;;;0.13;78.80
57232;BME280;43488;46.934;8.276;2023-01-29T01:00:08;97204.72;;;0.17;79.02
57232;BME280;43488;46.934;8.276;2023-01-29T01:02:37;97204.78;;;0.26;79.37
57232;BME280;43488;46.934;8.276;2023-01-29T01:05:23;97207.97;;;0.30;79.79
57232;BME280;43488;46.934;8.276;2023-01-29T01:07:52;97212.88;;;0.33;79.67
57232;BME280;43488;46.934;8.276;2023-01-29T01:10:26;97219.56;;;0.36;79.54
57232;BME280;43488;46.934;8.276;2023-01-29T01:13:03;97217.03;;;0.24;78.22
57232;BME280;43488;46.934;8.276;2023-01-29T01:15:39;97214.59;;;0.23;79.33
57232;BME280;43488;46.934;8.276;2023-01-29T01:18:06;97223.84;;;0.25;79.99
57232;BME280;43488;46.934;8.276;2023-01-29T01:20:34;97222.47;;;0.21;80.08
57232;BME280;43488;46.934;8.276;2023-01-29T01:23:02;97228.47;;;0.22;79.81
57232;BME280;43488;46.934;8.276;2023-01-29T01:25:30;97227.47;;;0.13;80.19
57232;BME280;43488;46.934;8.276;2023-01-29T01:27:58;97240.28;;;0.15;79.98
57232;BME280;43488;46.934;8.276;2023-01-29T01:30:25;97227.66;;;0.21;79.52
57232;BME280;43488;46.934;8.276;2023-01-29T01:32:54;97235.44;;;0.21;79.54
57232;BME280;43488;46.934;8.276;2023-01-29T01:35:21;97237.81;;;0.13;79.25
57232;BME280;43488;46.934;8.276;2023-01-29T01:37:48;97244.84;;;0.22;79.21
57232;BME280;43488;46.934;8.276;2023-01-29T01:40:20;97243.63;;;0.26;79.53
57232;BME280;43488;46.934;8.276;2023-01-29T01:43:00;97242.13;;;0.24;79.19
57232;BME280;43488;46.934;8.276;2023-01-29T01:45:32;97240.16;;;0.16;79.29
57232;BME280;43488;46.934;8.276;2023-01-29T01:48:23;97252.88;;;0.19;79.63
57232;BME280;43488;46.934;8.276;2023-01-29T01:50:59;97253.34;;;0.13;79.42
57232;BME280;43488;46.934;8.276;2023-01-29T01:53:40;97257.44;;;0.16;80.02
57232;BME280;43488;46.934;8.276;2023-01-29T01:56:17;97259.34;;;0.14;80.58
57232;BME280;43488;46.934;8.276;2023-01-29T01:58:55;97260.78;;;0.07;80.54
57232;BME280;43488;46.934;8.276;2023-01-29T02:01:25;97267.38;;;0.11;80.80
57232;BME280;43488;46.934;8.276;2023-01-29T02:04:14;97268.41;;;0.08;80.31
57232;BME280;43488;46.934;8.276;2023-01-29T02:07:02;97266.47;;;0.01;80.06
57232;BME280;43488;46.934;8.276;2023-01-29T02:09:52;97279.50;;;0.10;80.92
57232;BME280;43488;46.934;8.276;2023-01-29T02:12:21;97271.09;;;0.18;80.74
57232;BME280;43488;46.934;8.276;2023-01-29T02:14:48;97279.13;;;0.15;79.84
57232;BME280;43488;46.934;8.276;2023-01-29T02:17:19;97281.50;;;0.07;79.72
57232;BME280;43488;46.934;8.276;2023-01-29T02:20:19;97273.72;;;0.07;79.53
57232;BME280;43488;46.934;8.276;2023-01-29T02:26:01;97288.09;;;0.11;79.23
57232;BME280;43488;46.934;8.276;2023-01-29T02:33:55;97296.13;;;-0.04;79.18
57232;BME280;43488;46.934;8.276;2023-01-29T02:36:55;97300.81;;;0.03;79.28
57232;BME280;43488;46.934;8.276;2023-01-29T02:39:52;97301.16;;;0.09;79.42
57232;BME280;43488;46.934;8.276;2023-01-29T02:43:07;97314.53;;;0.14;78.97
57232;BME280;43488;46.934;8.276;2023-01-29T02:45:59;97305.00;;;0.15;79.18
57232;BME280;43488;46.934;8.276;2023-01-29T02:48:49;97298.66;;;0.19;79.27
57232;BME280;43488;46.934;8.276;2023-01-29T02:51:31;97303.38;;;0.14;78.68
57232;BME280;43488;46.934;8.276;2023-01-29T02:54:14;97299.56;;;0.18;78.07
57232;BME280;43488;46.934;8.276;2023-01-29T02:56:55;97294.84;;;0.23;78.58
57232;BME280;43488;46.934;8.276;2023-01-29T02:59:35;97294.66;;;0.15;77.79
57232;BME280;43488;46.934;8.276;2023-01-29T03:02:11;97296.41;;;0.14;77.56
57232;BME280;43488;46.934;8.276;2023-01-29T03:04:45;97303.25;;;0.15;78.81
57232;BME280;43488;46.934;8.276;2023-01-29T03:07:24;97297.38;;;0.13;77.96
57232;BME280;43488;46.934;8.276;2023-01-29T03:10:33;97304.75;;;0.18;77.78
57232;BME280;43488;46.934;8.276;2023-01-29T03:15:42;97291.25;;;0.14;77.96
57232;BME280;43488;46.934;8.276;2023-01-29T03:18:22;97283.22;;;0.17;77.86
57232;BME280;43488;46.934;8.276;2023-01-29T03:21:00;97279.38;;;0.12;77.55
57232;BME280;43488;46.934;8.276;2023-01-29T03:23:31;97284.28;;;0.15;77.60
57232;BME280;43488;46.934;8.276;2023-01-29T03:26:20;97271.22;;;0.16;77.61
57232;BME280;43488;46.934;8.276;2023-01-29T03:29:06;97276.28;;;0.18;77.70
57232;BME280;43488;46.934;8.276;2023-01-29T03:31:54;97278.84;;;0.18;77.99
57232;BME280;43488;46.934;8.276;2023-01-29T03:34:39;97276.28;;;0.18;77.83
57232;BME280;43488;46.934;8.276;2023-01-29T03:37:25;97271.94;;;0.18;78.17
57232;BME280;43488;46.934;8.276;2023-01-29T03:39:54;97266.16;;;0.15;78.20
57232;BME280;43488;46.934;8.276;2023-01-29T03:42:43;97257.44;;;0.16;78.28
57232;BME280;43488;46.934;8.276;2023-01-29T03:48:03;97257.91;;;0.21;78.42
57232;BME280;43488;46.934;8.276;2023-01-29T03:50:46;97256.28;;;0.20;78.15
57232;BME280;43488;46.934;8.276;2023-01-29T03:56:03;97254.13;;;0.25;77.28
57232;BME280;43488;46.934;8.276;2023-01-29T03:58:40;97253.44;;;0.23;77.75
57232;BME280;43488;46.934;8.276;2023-01-29T04:04:27;97259.56;;;0.22;77.87
57232;BME280;43488;46.934;8.276;2023-01-29T04:06:57;97257.78;;;0.22;78.25
57232;BME280;43488;46.934;8.276;2023-01-29T04:09:36;97262.84;;;0.24;78.71
57232;BME280;43488;46.934;8.276;2023-01-29T04:12:08;97261.06;;;0.24;78.79
57232;BME280;43488;46.934;8.276;2023-01-29T04:14:36;97255.06;;;0.24;78.78
57232;BME280;43488;46.934;8.276;2023-01-29T04:17:11;97253.56;;;0.21;78.98
57232;BME280;43488;46.934;8.276;2023-01-29T04:19:40;97258.03;;;0.19;79.08
57232;BME280;43488;46.934;8.276;2023-01-29T04:24:45;97265.22;;;0.16;79.65
57232;BME280;43488;46.934;8.276;2023-01-29T04:39:01;97250.28;;;0.19;79.50
57232;BME280;43488;46.934;8.276;2023-01-29T04:57:44;97236.50;;;0.19;78.19
57232;BME280;43488;46.934;8.276;2023-01-29T05:00:39;97241.56;;;0.20;79.60
57232;BME280;43488;46.934;8.276;2023-01-29T05:03:07;97238.16;;;0.20;79.34
57232;BME280;43488;46.934;8.276;2023-01-29T05:05:39;97232.25;;;0.18;79.91
57232;BME280;43488;46.934;8.276;2023-01-29T05:08:08;97233.19;;;0.17;79.83
57232;BME280;43488;46.934;8.276;2023-01-29T05:10:37;97250.28;;;0.19;80.03
57232;BME280;43488;46.934;8.276;2023-01-29T05:13:05;97245.66;;;0.23;80.13
57232;BME280;43488;46.934;8.276;2023-01-29T05:15:53;97243.19;;;0.21;80.63
57232;BME280;43488;46.934;8.276;2023-01-29T05:18:22;97253.56;;;0.21;80.40
57232;BME280;43488;46.934;8.276;2023-01-29T05:20:49;97265.91;;;0.18;81.49
57232;BME280;43488;46.934;8.276;2023-01-29T05:23:19;97259.00;;;0.18;81.74
57232;BME280;43488;46.934;8.276;2023-01-29T05:25:47;97265.56;;;0.22;81.40
57232;BME280;43488;46.934;8.276;2023-01-29T05:28:15;97269.91;;;0.22;82.40
57232;BME280;43488;46.934;8.276;2023-01-29T05:30:50;97275.09;;;0.22;82.22
57232;BME280;43488;46.934;8.276;2023-01-29T05:33:29;97281.09;;;0.22;82.12
57232;BME280;43488;46.934;8.276;2023-01-29T05:35:58;97271.00;;;0.19;81.74
57232;BME280;43488;46.934;8.276;2023-01-29T05:38:26;97278.63;;;0.21;82.09
57232;BME280;43488;46.934;8.276;2023-01-29T05:40:57;97279.56;;;0.20;81.94
57232;BME280;43488;46.934;8.276;2023-01-29T05:43:25;97286.41;;;0.21;81.87
57232;BME280;43488;46.934;8.276;2023-01-29T05:45:54;97282.03;;;0.21;82.49
57232;BME280;43488;46.934;8.276;2023-01-29T05:48:21;97292.28;;;0.23;82.56
57232;BME280;43488;46.934;8.276;2023-01-29T05:50:50;97292.53;;;0.20;81.97
57232;BME280;43488;46.934;8.276;2023-01-29T05:53:17;97296.97;;;0.18;82.43
57232;BME280;43488;46.934;8.276;2023-01-29T05:55:45;97296.63;;;0.22;82.57
57232;BME280;43488;46.934;8.276;2023-01-29T05:58:13;97304.53;;;0.21;81.87
57232;BME280;43488;46.934;8.276;2023-01-29T06:00:40;97306.16;;;0.22;82.46
57232;BME280;43488;46.934;8.276;2023-01-29T06:03:07;97303.84;;;0.19;81.93
57232;BME280;43488;46.934;8.276;2023-01-29T06:05:38;97309.72;;;0.21;81.58
57232;BME280;43488;46.934;8.276;2023-01-29T06:08:06;97314.19;;;0.19;81.08
57232;BME280;43488;46.934;8.276;2023-01-29T06:10:33;97319.38;;;0.19;81.31
57232;BME280;43488;46.934;8.276;2023-01-29T06:13:00;97325.38;;;0.19;81.93
57232;BME280;43488;46.934;8.276;2023-01-29T06:15:28;97324.56;;;0.19;81.17
57232;BME280;43488;46.934;8.276;2023-01-29T06:17:56;97328.91;;;0.18;80.95
57232;BME280;43488;46.934;8.276;2023-01-29T06:20:23;97338.19;;;0.21;80.74
57232;BME280;43488;46.934;8.276;2023-01-29T06:22:50;97339.13;;;0.20;80.71
57232;BME280;43488;46.934;8.276;2023-01-29T06:25:17;97349.84;;;0.15;83.25
57232;BME280;43488;46.934;8.276;2023-01-29T06:27:44;97348.09;;;0.16;83.39
57232;BME280;43488;46.934;8.276;2023-01-29T06:30:11;97357.50;;;0.17;81.40
57232;BME280;43488;46.934;8.276;2023-01-29T06:32:39;97364.44;;;0.16;80.14
57232;BME280;43488;46.934;8.276;2023-01-29T06:35:07;97364.56;;;0.15;80.48
57232;BME280;43488;46.934;8.276;2023-01-29T06:37:35;97364.44;;;0.16;81.02
57232;BME280;43488;46.934;8.276;2023-01-29T06:40:04;97369.50;;;0.18;81.82
57232;BME280;43488;46.934;8.276;2023-01-29T06:42:34;97383.84;;;0.22;81.49
57232;BME280;43488;46.934;8.276;2023-01-29T06:45:01;97383.38;;;0.17;82.95
57232;BME280;43488;46.934;8.276;2023-01-29T06:47:28;97388.81;;;0.14;80.95
57232;BME280;43488;46.934;8.276;2023-01-29T06:49:54;97394.94;;;0.13;80.93
57232;BME280;43488;46.934;8.276;2023-01-29T06:52:22;97402.59;;;0.14;81.69
57232;BME280;43488;46.934;8.276;2023-01-29T06:54:51;97409.53;;;0.14;82.00
57232;BME280;43488;46.934;8.276;2023-01-29T06:57:18;97408.47;;;0.16;81.76
57232;BME280;43488;46.934;8.276;2023-01-29T06:59:45;97395.38;;;0.18;81.45
57232;BME280;43488;46.934;8.276;2023-01-29T07:02:13;97412.59;;;0.19;81.95
57232;BME280;43488;46.934;8.276;2023-01-29T07:04:40;97399.41;;;0.22;81.83
57232;BME280;43488;46.934;8.276;2023-01-29T07:07:08;97404.56;;;0.22;79.57
57232;BME280;43488;46.934;8.276;2023-01-29T07:09:40;97405.41;;;0.22;78.79
57232;BME280;43488;46.934;8.276;2023-01-29T07:12:09;97400.34;;;0.21;79.96
57232;BME280;43488;46.934;8.276;2023-01-29T07:14:37;97412.47;;;0.20;80.23
57232;BME280;43488;46.934;8.276;2023-01-29T07:17:04;97408.25;;;0.19;80.40
57232;BME280;43488;46.934;8.276;2023-01-29T07:19:31;97404.56;;;0.22;80.33
57232;BME280;43488;46.934;8.276;2023-01-29T07:21:58;97404.56;;;0.22;80.44
57232;BME280;43488;46.934;8.276;2023-01-29T07:24:28;97405.66;;;0.19;79.20
57232;BME280;43488;46.934;8.276;2023-01-29T07:26:55;97401.03;;;0.23;76.55
57232;BME280;43488;46.934;8.276;2023-01-29T07:29:22;97400.91;;;0.24;77.10
57232;BME280;43488;46.934;8.276;2023-01-29T07:31:49;97399.16;;;0.25;77.03
57232;BME280;43488;46.934;8.276;2023-01-29T07:34:17;97388.78;;;0.25;76.89
57232;BME280;43488;46.934;8.276;2023-01-29T07:36:44;97385.25;;;0.26;77.43
57232;BME280;43488;46.934;8.276;2023-01-29T07:39:12;97385.16;;;0.27;78.09
57232;BME280;43488;46.934;8.276;2023-01-29T07:41:39;97373.50;;;0.22;79.00
57232;BME280;43488;46.934;8.276;2023-01-29T07:44:07;97373.75;;;0.19;79.27
57232;BME280;43488;46.934;8.276;2023-01-29T07:46:34;97365.97;;;0.19;80.20
57232;BME280;43488;46.934;8.276;2023-01-29T07:49:01;97364.44;;;0.16;80.62
57232;BME280;43488;46.934;8.276;2023-01-29T07:51:28;97359.13;;;0.18;80.65
57232;BME280;43488;46.934;8.276;2023-01-29T07:53:55;97354.91;;;0.17;81.41
57232;BME280;43488;46.934;8.276;2023-01-29T07:56:22;97349.72;;;0.17;81.59
57232;BME280;43488;46.934;8.276;2023-01-29T07:58:49;97349.50;;;0.20;81.76
57232;BME280;43488;46.934;8.276;2023-01-29T08:01:16;97348.09;;;0.16;81.42
57232;BME280;43488;46.934;8.276;2023-01-29T08:03:45;97342.91;;;0.16;81.19
57232;BME280;43488;46.934;8.276;2023-01-29T08:06:12;97340.78;;;0.21;81.97
57232;BME280;43488;46.934;8.276;2023-01-29T08:08:39;97333.56;;;0.24;81.09
57232;BME280;43488;46.934;8.276;2023-01-29T08:11:06;97343.81;;;0.26;80.95
57232;BME280;43488;46.934;8.276;2023-01-29T08:13:35;97339.34;;;0.28;81.15
57232;BME280;43488;46.934;8.276;2023-01-29T08:16:03;97347.81;;;0.30;80.94
57232;BME280;43488;46.934;8.276;2023-01-29T08:18:30;97345.78;;;0.34;81.18
57232;BME280;43488;46.934;8.276;2023-01-29T08:21:01;97336.03;;;0.37;79.48
57232;BME280;43488;46.934;8.276;2023-01-29T08:23:28;97343.66;;;0.39;79.32
57232;BME280;43488;46.934;8.276;2023-01-29T08:25:57;97337.53;;;0.40;78.10
57232;BME280;43488;46.934;8.276;2023-01-29T08:28:24;97342.47;;;0.43;76.28
57232;BME280;43488;46.934;8.276;2023-01-29T08:30:51;97346.47;;;0.47;75.17
57232;BME280;43488;46.934;8.276;2023-01-29T08:33:18;97341.03;;;0.50;73.87
57232;BME280;43488;46.934;8.276;2023-01-29T08:35:50;97338.91;;;0.55;73.32
57232;BME280;43488;46.934;8.276;2023-01-29T08:38:17;97342.19;;;0.57;72.75
57232;BME280;43488;46.934;8.276;2023-01-29T08:40:44;97338.38;;;0.61;71.19
57232;BME280;43488;46.934;8.276;2023-01-29T08:43:12;97337.19;;;0.65;70.94
57232;BME280;43488;46.934;8.276;2023-01-29T08:45:41;97335.16;;;0.69;69.42
57232;BME280;43488;46.934;8.276;2023-01-29T08:48:09;97330.53;;;0.72;69.44
57232;BME280;43488;46.934;8.276;2023-01-29T08:50:37;97342.06;;;0.79;69.87
57232;BME280;43488;46.934;8.276;2023-01-29T08:53:06;97338.66;;;0.79;70.23
57232;BME280;43488;46.934;8.276;2023-01-29T08:55:38;97347.31;;;0.89;70.71
57232;BME280;43488;46.934;8.276;2023-01-29T08:58:09;97338.09;;;0.96;70.57
57232;BME280;43488;46.934;8.276;2023-01-29T09:00:37;97337.44;;;1.04;70.28
57232;BME280;43488;46.934;8.276;2023-01-29T09:03:05;97336.56;;;1.14;69.97
57232;BME280;43488;46.934;8.276;2023-01-29T09:05:36;97331.91;;;1.18;70.41
57232;BME280;43488;46.934;8.276;2023-01-29T09:08:04;97330.84;;;1.21;70.25
57232;BME280;43488;46.934;8.276;2023-01-29T09:10:33;97334.41;;;1.20;69.99
57232;BME280;43488;46.934;8.276;2023-01-29T09:13:00;97338.78;;;1.19;70.44
57232;BME280;43488;46.934;8.276;2023-01-29T09:15:29;97341.88;;;1.13;70.52
57232;BME280;43488;46.934;8.276;2023-01-29T09:17:57;97340.28;;;1.22;71.17
57232;BME280;43488;46.934;8.276;2023-01-29T09:20:25;97337.38;;;1.15;71.10
57232;BME280;43488;46.934;8.276;2023-01-29T09:22:53;97341.72;;;1.14;72.20
57232;BME280;43488;46.934;8.276;2023-01-29T09:25:24;97345.09;;;1.05;73.01
57232;BME280;43488;46.934;8.276;2023-01-29T09:27:53;97343.31;;;1.06;72.63
57232;BME280;43488;46.934;8.276;2023-01-29T09:30:20;97360.72;;;1.15;71.92
57232;BME280;43488;46.934;8.276;2023-01-29T09:32:48;97353.19;;;1.12;72.20
57232;BME280;43488;46.934;8.276;2023-01-29T09:35:15;97362.66;;;1.23;71.85
57232;BME280;43488;46.934;8.276;2023-01-29T09:37:46;97367.59;;;1.26;70.34
57232;BME280;43488;46.934;8.276;2023-01-29T09:40:23;97366.00;;;1.34;69.71
57232;BME280;43488;46.934;8.276;2023-01-29T09:43:01;97367.34;;;1.29;69.62
57232;BME280;43488;46.934;8.276;2023-01-29T09:45:30;97379.09;;;1.33;71.45
57232;BME280;43488;46.934;8.276;2023-01-29T09:48:01;97384.03;;;1.36;69.57
57232;BME280;43488;46.934;8.276;2023-01-29T09:50:37;97387.22;;;1.39;69.43
57232;BME280;43488;46.934;8.276;2023-01-29T09:53:15;97391.03;;;1.45;68.83
57232;BME280;43488;46.934;8.276;2023-01-29T09:55:57;97397.38;;;1.52;68.37
57232;BME280;43488;46.934;8.276;2023-01-29T09:58:34;97399.84;;;1.54;66.69
57232;BME280;43488;46.934;8.276;2023-01-29T10:03:54;97419.84;;;1.42;64.97
57232;BME280;43488;46.934;8.276;2023-01-29T10:06:40;97406.31;;;1.38;66.07
57232;BME280;43488;46.934;8.276;2023-01-29T10:12:23;97417.72;;;1.47;68.81
57232;BME280;43488;46.934;8.276;2023-01-29T10:23:50;97428.66;;;1.30;68.16
57232;BME280;43488;46.934;8.276;2023-01-29T10:26:20;97429.78;;;1.37;68.09
57232;BME280;43488;46.934;8.276;2023-01-29T10:28:50;97431.44;;;1.38;68.22
57232;BME280;43488;46.934;8.276;2023-01-29T10:31:32;97438.31;;;1.28;67.89
57232;BME280;43488;46.934;8.276;2023-01-29T10:36:53;97428.16;;;1.15;68.85
57232;BME280;43488;46.934;8.276;2023-01-29T10:39:22;97433.66;;;1.22;68.69
57232;BME280;43488;46.934;8.276;2023-01-29T10:44:52;97436.81;;;1.04;69.06
57232;BME280;43488;46.934;8.276;2023-01-29T10:50:24;97448.69;;;1.07;68.45
57232;BME280;43488;46.934;8.276;2023-01-29T10:53:15;97444.03;;;1.22;68.38
57232;BME280;43488;46.934;8.276;2023-01-29T11:01:09;97449.47;;;1.39;67.27
57232;BME280;43488;46.934;8.276;2023-01-29T11:03:37;97443.50;;;1.28;67.10
57232;BME280;43488;46.934;8.276;2023-01-29T11:09:05;97446.19;;;1.37;66.76
57232;BME280;43488;46.934;8.276;2023-01-29T11:11:45;97450.50;;;1.48;66.35
57232;BME280;43488;46.934;8.276;2023-01-29T11:16:59;97448.72;;;1.49;66.46
57232;BME280;43488;46.934;8.276;2023-01-29T11:19:43;97439.97;;;1.50;66.49
57232;BME280;43488;46.934;8.276;2023-01-29T11:22:18;97439.16;;;1.49;65.79
57232;BME280;43488;46.934;8.276;2023-01-29T11:27:33;97438.34;;;1.49;65.93
57232;BME280;43488;46.934;8.276;2023-01-29T11:30:01;97429.91;;;1.56;65.62
57232;BME280;43488;46.934;8.276;2023-01-29T11:32:31;97430.91;;;1.65;63.97
57232;BME280;43488;46.934;8.276;2023-01-29T11:37:41;97418.41;;;1.80;64.52
57232;BME280;43488;46.934;8.276;2023-01-29T11:40:31;97418.56;;;1.88;63.29
57232;BME280;43488;46.934;8.276;2023-01-29T11:43:20;97409.56;;;1.92;63.25
57232;BME280;43488;46.934;8.276;2023-01-29T11:45:49;97412.72;;;1.95;62.73
57232;BME280;43488;46.934;8.276;2023-01-29T11:48:21;97407.41;;;1.97;62.39
57232;BME280;43488;46.934;8.276;2023-01-29T11:50:54;97408.34;;;1.96;62.88
57232;BME280;43488;46.934;8.276;2023-01-29T11:53:35;97409.31;;;1.95;62.59
57232;BME280;43488;46.934;8.276;2023-01-29T11:56:05;97400.94;;;1.91;61.97
57232;BME280;43488;46.934;8.276;2023-01-29T11:58:39;97398.66;;;1.98;62.08
57232;BME280;43488;46.934;8.276;2023-01-29T12:01:08;97395.91;;;1.99;61.49
57232;BME280;43488;46.934;8.276;2023-01-29T12:03:43;97396.63;;;2.02;61.84
57232;BME280;43488;46.934;8.276;2023-01-29T12:06:21;97391.38;;;1.92;62.10
57232;BME280;43488;46.934;8.276;2023-01-29T12:08:57;97384.44;;;1.92;61.69
57232;BME280;43488;46.934;8.276;2023-01-29T12:11:30;97373.63;;;1.97;61.73
57232;BME280;43488;46.934;8.276;2023-01-29T12:13:59;97374.47;;;1.97;61.63
57232;BME280;43488;46.934;8.276;2023-01-29T12:16:50;97379.34;;;1.91;61.83
57232;BME280;43488;46.934;8.276;2023-01-29T12:19:47;97366.94;;;1.94;62.03
57232;BME280;43488;46.934;8.276;2023-01-29T12:22:21;97359.16;;;1.94;61.81
57232;BME280;43488;46.934;8.276;2023-01-29T12:25:15;97350.53;;;1.94;62.13
57232;BME280;43488;46.934;8.276;2023-01-29T12:27:56;97347.94;;;1.94;61.38
57232;BME280;43488;46.934;8.276;2023-01-29T12:30:37;97342.91;;;2.02;61.63
57232;BME280;43488;46.934;8.276;2023-01-29T12:33:26;97344.91;;;1.89;60.97
57232;BME280;43488;46.934;8.276;2023-01-29T12:36:18;97351.91;;;1.98;60.15
57232;BME280;43488;46.934;8.276;2023-01-29T12:38:48;97340.50;;;2.30;59.45
57232;BME280;43488;46.934;8.276;2023-01-29T12:41:38;97326.09;;;2.74;58.06
57232;BME280;43488;46.934;8.276;2023-01-29T12:44:15;97323.31;;;3.14;57.23
57232;BME280;43488;46.934;8.276;2023-01-29T12:46:47;97316.13;;;4.36;54.27
57232;BME280;43488;46.934;8.276;2023-01-29T12:49:19;97312.75;;;6.82;46.97
57232;BME280;43488;46.934;8.276;2023-01-29T12:51:57;97312.16;;;8.30;43.69
57232;BME280;43488;46.934;8.276;2023-01-29T12:54:37;97301.19;;;9.92;39.92
57232;BME280;43488;46.934;8.276;2023-01-29T12:57:15;97306.16;;;9.28;39.95
57232;BME280;43488;46.934;8.276;2023-01-29T12:59:46;97298.84;;;9.97;37.64
57232;BME280;43488;46.934;8.276;2023-01-29T13:02:47;97302.59;;;10.24;37.52
57232;BME280;43488;46.934;8.276;2023-01-29T13:05:23;97301.59;;;11.38;35.35
57232;BME280;43488;46.934;8.276;2023-01-29T13:08:49;97290.00;;;12.83;33.23
57232;BME280;43488;46.934;8.276;2023-01-29T13:10:55;97286.97;;;14.55;30.37
57232;BME280;43488;46.934;8.276;2023-01-29T13:13:34;97280.59;;;15.81;28.44
57232;BME280;43488;46.934;8.276;2023-01-29T13:16:08;97279.88;;;16.70;27.06
57232;BME280;43488;46.934;8.276;2023-01-29T13:18:46;97290.72;;;17.69;25.77
57232;BME280;43488;46.934;8.276;2023-01-29T13:21:42;97290.75;;;18.33;25.13
57232;BME280;43488;46.934;8.276;2023-01-29T13:24:23;97290.81;;;18.78;23.74
57232;BME280;43488;46.934;8.276;2023-01-29T13:26:50;97296.00;;;18.85;24.18
57232;BME280;43488;46.934;8.276;2023-01-29T13:29:28;97282.88;;;18.26;24.54
57232;BME280;43488;46.934;8.276;2023-01-29T13:31:57;97291.63;;;17.04;26.39
57232;BME280;43488;46.934;8.276;2023-01-29T13:34:34;97295.78;;;16.59;27.21
57232;BME280;43488;46.934;8.276;2023-01-29T13:37:08;97302.69;;;14.43;29.59
57232;BME280;43488;46.934;8.276;2023-01-29T13:39:38;97304.53;;;15.06;29.29
57232;BME280;43488;46.934;8.276;2023-01-29T13:42:44;97293.78;;;15.01;29.43
57232;BME280;43488;46.934;8.276;2023-01-29T13:45:24;97294.56;;;14.76;29.12
57232;BME280;43488;46.934;8.276;2023-01-29T13:47:51;97308.56;;;16.20;28.19
57232;BME280;43488;46.934;8.276;2023-01-29T13:50:49;97308.47;;;15.72;28.52
57232;BME280;43488;46.934;8.276;2023-01-29T13:53:33;97307.88;;;16.25;27.45
57232;BME280;43488;46.934;8.276;2023-01-29T13:58:56;97304.94;;;14.40;29.66
57232;BME280;43488;46.934;8.276;2023-01-29T14:07:04;97306.09;;;13.21;31.35
57232;BME280;43488;46.934;8.276;2023-01-29T14:17:15;97318.22;;;11.67;33.99
57232;BME280;43488;46.934;8.276;2023-01-29T14:19:50;97315.25;;;10.71;35.20
57232;BME280;43488;46.934;8.276;2023-01-29T14:22:22;97313.59;;;9.39;37.58
57232;BME280;43488;46.934;8.276;2023-01-29T14:24:53;97314.50;;;8.79;38.90
57232;BME280;43488;46.934;8.276;2023-01-29T14:27:22;97316.69;;;8.90;39.30
57232;BME280;43488;46.934;8.276;2023-01-29T14:30:08;97308.19;;;8.65;39.96
57232;BME280;43488;46.934;8.276;2023-01-29T14:32:45;97300.66;;;8.39;40.38
57232;BME280;43488;46.934;8.276;2023-01-29T14:35:21;97303.97;;;8.56;39.96
57232;BME280;43488;46.934;8.276;2023-01-29T14:37:51;97298.75;;;8.56;40.29
57232;BME280;43488;46.934;8.276;2023-01-29T14:40:23;97301.59;;;8.15;40.08
57232;BME280;43488;46.934;8.276;2023-01-29T14:43:06;97298.47;;;7.81;41.29
57232;BME280;43488;46.934;8.276;2023-01-29T14:45:38;97303.13;;;6.99;43.72
57232;BME280;43488;46.934;8.276;2023-01-29T14:50:45;97301.41;;;6.16;45.31
57232;BME280;43488;46.934;8.276;2023-01-29T14:53:39;97307.13;;;5.69;46.90
57232;BME280;43488;46.934;8.276;2023-01-29T14:56:28;97307.59;;;5.39;47.63
57232;BME280;43488;46.934;8.276;2023-01-29T14:59:21;97307.16;;;5.43;47.33
57232;BME280;43488;46.934;8.276;2023-01-29T15:01:54;97304.06;;;5.48;48.07
57232;BME280;43488;46.934;8.276;2023-01-29T15:04:26;97304.22;;;5.81;47.33
57232;BME280;43488;46.934;8.276;2023-01-29T15:07:04;97296.34;;;5.72;47.37
57232;BME280;43488;46.934;8.276;2023-01-29T15:15:09;97290.72;;;5.51;47.96
57232;BME280;43488;46.934;8.276;2023-01-29T15:20:34;97287.81;;;5.28;49.07
57232;BME280;43488;46.934;8.276;2023-01-29T15:23:02;97273.22;;;4.92;49.41
57232;BME280;43488;46.934;8.276;2023-01-29T15:25:36;97289.53;;;4.94;49.67
57232;BME280;43488;46.934;8.276;2023-01-29T15:28:13;97276.50;;;4.94;49.40
57232;BME280;43488;46.934;8.276;2023-01-29T15:30:42;97280.44;;;4.72;49.93
57232;BME280;43488;46.934;8.276;2023-01-29T15:33:12;97284.25;;;4.60;50.26
57232;BME280;43488;46.934;8.276;2023-01-29T15:35:40;97276.22;;;4.53;50.83
57232;BME280;43488;46.934;8.276;2023-01-29T15:38:18;97278.81;;;4.53;51.18
57232;BME280;43488;46.934;8.276;2023-01-29T15:41:21;97277.63;;;4.47;50.33